Time;durP1;ratioP1;P1;durP2;ratioP2;P2;SDS_P1;SDS_P2;PMS_P1;PMS_P2;Temp;Humidity;BMP_temperature;BMP_pressure;BME280_temperature;BME280_humidity;BME280_pressure;Samples;Min_cycle;Max_cycle;Signal;HPM_P1;HPM_P2
2021/07/01 00:00:31;;;;;;;2.13;1.03;;;16.50;99.90;;;;;;5013763;28;20214;-61
2021/07/01 00:02:58;;;;;;;1.53;1.20;;;16.60;99.90;;;;;;5013542;28;20207;-61
2021/07/01 00:05:25;;;;;;;1.57;0.70;;;16.60;99.90;;;;;;5013407;28;20675;-61
2021/07/01 00:07:52;;;;;;;1.67;1.07;;;16.60;99.90;;;;;;5012896;28;20309;-61
2021/07/01 00:10:24;;;;;;;2.63;1.43;;;16.50;99.90;;;;;;5013125;28;20207;-61
2021/07/01 00:12:51;;;;;;;1.87;1.03;;;16.50;99.90;;;;;;5013537;28;20660;-61
2021/07/01 00:15:21;;;;;;;1.53;0.90;;;16.50;99.90;;;;;;5012959;28;20269;-61
2021/07/01 00:17:47;;;;;;;2.27;0.97;;;16.50;99.90;;;;;;5013199;28;20230;-61
2021/07/01 00:20:15;;;;;;;3.33;0.90;;;16.40;99.90;;;;;;5013133;28;20215;-61
2021/07/01 00:22:42;;;;;;;1.17;0.80;;;16.40;99.90;;;;;;5013424;28;20218;-61
2021/07/01 00:25:11;;;;;;;1.93;0.70;;;16.50;99.90;;;;;;5013500;28;20218;-61
2021/07/01 00:27:40;;;;;;;4.03;0.80;;;16.50;99.90;;;;;;5012747;28;20231;-61
2021/07/01 00:30:09;;;;;;;4.97;1.87;;;16.40;99.90;;;;;;5012627;28;20724;-61
2021/07/01 00:32:36;;;;;;;1.47;1.13;;;16.50;99.90;;;;;;5013308;28;20215;-61
2021/07/01 00:35:03;;;;;;;3.87;1.10;;;16.50;99.90;;;;;;5012837;28;20713;-61
2021/07/01 00:37:32;;;;;;;2.07;0.90;;;16.50;99.90;;;;;;5012605;28;20230;-61
2021/07/01 00:39:59;;;;;;;1.00;0.73;;;16.50;99.90;;;;;;5012457;28;20289;-61
2021/07/01 00:42:26;;;;;;;1.93;1.00;;;16.50;99.90;;;;;;5011771;28;20210;-61
2021/07/01 00:44:54;;;;;;;1.17;0.70;;;16.50;99.90;;;;;;5012400;28;20203;-62
2021/07/01 00:47:20;;;;;;;1.23;0.60;;;16.40;99.90;;;;;;5012046;28;20234;-62
2021/07/01 00:49:48;;;;;;;1.40;0.70;;;16.40;99.90;;;;;;5012299;28;20206;-61
2021/07/01 00:52:15;;;;;;;1.87;1.60;;;16.40;99.90;;;;;;5012181;28;20214;-61
2021/07/01 00:54:43;;;;;;;1.60;1.00;;;16.40;99.90;;;;;;5012200;28;20214;-62
2021/07/01 00:57:10;;;;;;;2.67;0.90;;;16.40;99.90;;;;;;5011983;28;20703;-61
2021/07/01 00:59:37;;;;;;;0.93;0.80;;;16.40;99.90;;;;;;5012693;28;20218;-62
2021/07/01 01:02:06;;;;;;;5.13;1.00;;;16.40;99.90;;;;;;5012547;28;20218;-61
2021/07/01 01:04:33;;;;;;;2.23;0.90;;;16.40;99.90;;;;;;5012219;28;20209;-61
2021/07/01 01:06:59;;;;;;;1.50;0.80;;;16.40;99.90;;;;;;5012199;28;20259;-61
2021/07/01 01:09:26;;;;;;;0.93;0.80;;;16.30;99.90;;;;;;5011820;28;20207;-61
2021/07/01 01:11:53;;;;;;;1.63;0.73;;;16.30;99.90;;;;;;5012223;28;20636;-61
2021/07/01 01:14:19;;;;;;;0.90;0.80;;;16.30;99.90;;;;;;5012130;28;20218;-61
2021/07/01 01:16:46;;;;;;;1.57;1.00;;;16.30;99.90;;;;;;5011744;28;20231;-61
2021/07/01 01:19:14;;;;;;;1.20;1.00;;;16.30;99.90;;;;;;5012212;28;20627;-61
2021/07/01 01:21:45;;;;;;;2.27;1.07;;;16.40;99.90;;;;;;5011950;28;20206;-61
2021/07/01 01:24:11;;;;;;;2.47;1.20;;;16.40;99.90;;;;;;5012113;28;20210;-62
2021/07/01 01:26:38;;;;;;;1.23;1.10;;;16.40;99.90;;;;;;5011885;28;20227;-61
2021/07/01 01:29:05;;;;;;;3.60;1.20;;;16.40;99.90;;;;;;5011923;28;20206;-61
2021/07/01 01:31:32;;;;;;;1.23;1.07;;;16.40;99.90;;;;;;5011619;28;20211;-61
2021/07/01 01:33:59;;;;;;;1.57;0.90;;;16.40;99.90;;;;;;5011618;28;20209;-61
2021/07/01 01:36:26;;;;;;;3.53;1.80;;;16.40;99.90;;;;;;5011805;28;20219;-61
2021/07/01 01:38:54;;;;;;;1.63;1.23;;;16.40;99.90;;;;;;5011596;28;20718;-61
2021/07/01 01:41:23;;;;;;;1.97;1.03;;;16.40;99.90;;;;;;5011787;28;20203;-61
2021/07/01 01:43:49;;;;;;;1.60;0.80;;;16.40;99.90;;;;;;5011593;28;20222;-61
2021/07/01 01:46:16;;;;;;;1.20;1.10;;;16.50;99.90;;;;;;5011262;28;20230;-61
2021/07/01 01:48:43;;;;;;;1.30;1.20;;;16.40;99.90;;;;;;5011454;28;20241;-62
2021/07/01 01:51:09;;;;;;;1.73;1.23;;;16.40;99.90;;;;;;5011434;28;20242;-61
2021/07/01 01:53:36;;;;;;;1.00;1.00;;;16.30;99.90;;;;;;5012534;28;20233;-62
2021/07/01 01:56:04;;;;;;;2.77;1.20;;;16.30;99.90;;;;;;5015437;28;20239;-61
2021/07/01 01:58:31;;;;;;;2.43;1.13;;;16.40;99.90;;;;;;5015445;28;20210;-61
2021/07/01 02:00:58;;;;;;;2.10;1.23;;;16.40;99.90;;;;;;5015377;28;20219;-61
2021/07/01 02:03:24;;;;;;;1.30;1.10;;;16.40;99.90;;;;;;5015138;28;20216;-61
2021/07/01 02:05:51;;;;;;;1.63;1.37;;;16.50;99.90;;;;;;5015383;28;20217;-62
2021/07/01 02:08:18;;;;;;;2.70;1.60;;;16.40;99.90;;;;;;5015675;28;20227;-62
2021/07/01 02:10:44;;;;;;;2.87;1.60;;;16.30;99.90;;;;;;5015259;28;20207;-63
2021/07/01 02:13:12;;;;;;;2.97;1.70;;;16.30;99.90;;;;;;5015132;28;20675;-62
2021/07/01 02:15:39;;;;;;;3.17;1.90;;;16.30;99.90;;;;;;5014881;28;20234;-63
2021/07/01 02:18:06;;;;;;;2.40;1.83;;;16.30;99.90;;;;;;5014789;28;20698;-62
2021/07/01 02:20:33;;;;;;;2.23;1.70;;;16.30;99.90;;;;;;5015223;28;20210;-62
2021/07/01 02:22:59;;;;;;;3.07;1.80;;;16.20;99.90;;;;;;5015307;28;20209;-62
2021/07/01 02:25:26;;;;;;;2.20;1.90;;;16.30;99.90;;;;;;5016451;28;20419;-63
2021/07/01 02:27:52;;;;;;;2.47;2.20;;;16.30;99.90;;;;;;5014620;28;20230;-63
2021/07/01 02:30:21;;;;;;;3.13;2.00;;;16.30;99.90;;;;;;5014728;28;20217;-63
2021/07/01 02:32:47;;;;;;;2.77;2.40;;;16.30;99.90;;;;;;5014522;28;20218;-63
2021/07/01 02:35:14;;;;;;;2.33;1.90;;;16.30;99.90;;;;;;5014708;28;20206;-63
2021/07/01 02:37:42;;;;;;;2.53;2.30;;;16.30;99.90;;;;;;5014716;28;20583;-63
2021/07/01 02:40:13;;;;;;;4.57;2.20;;;16.40;99.90;;;;;;5014803;28;20206;-63
2021/07/01 02:42:41;;;;;;;3.77;2.20;;;16.40;99.90;;;;;;5015094;28;20261;-63
2021/07/01 02:45:08;;;;;;;2.83;2.20;;;16.50;99.90;;;;;;5014470;28;20207;-63
2021/07/01 02:47:36;;;;;;;3.33;2.10;;;16.50;99.90;;;;;;5014132;28;20715;-63
2021/07/01 02:50:04;;;;;;;3.50;2.07;;;16.60;99.90;;;;;;5014216;28;20675;-63
2021/07/01 02:52:30;;;;;;;5.23;2.13;;;16.60;99.90;;;;;;5014757;28;20234;-63
2021/07/01 02:54:57;;;;;;;2.00;1.80;;;16.60;99.90;;;;;;5014027;28;20674;-63
2021/07/01 02:57:24;;;;;;;4.10;1.87;;;16.60;99.90;;;;;;5014152;28;20234;-63
2021/07/01 02:59:50;;;;;;;2.33;1.43;;;16.60;99.90;;;;;;5014317;28;20237;-63
2021/07/01 03:02:17;;;;;;;2.80;1.97;;;16.60;99.90;;;;;;5014098;28;20811;-63
2021/07/01 03:04:45;;;;;;;2.03;1.40;;;16.70;99.90;;;;;;5013409;28;20261;-63
2021/07/01 03:07:12;;;;;;;2.03;1.60;;;16.60;99.90;;;;;;5013547;28;20252;-63
2021/07/01 03:09:38;;;;;;;1.90;1.27;;;16.60;99.90;;;;;;5014318;28;20207;-63
2021/07/01 03:12:06;;;;;;;1.47;1.30;;;16.60;99.90;;;;;;5015152;28;20636;-63
2021/07/01 03:14:33;;;;;;;9.50;1.23;;;16.60;99.90;;;;;;5016829;28;20261;-63
2021/07/01 03:16:59;;;;;;;2.37;1.30;;;16.60;99.90;;;;;;5015467;28;20632;-63
2021/07/01 03:19:26;;;;;;;2.50;1.10;;;16.50;99.90;;;;;;5014226;28;20213;-63
2021/07/01 03:21:54;;;;;;;2.03;1.20;;;16.60;99.90;;;;;;5014405;28;20207;-63
2021/07/01 03:24:21;;;;;;;3.47;1.40;;;16.60;99.90;;;;;;5014036;28;20210;-63
2021/07/01 03:26:47;;;;;;;1.00;0.90;;;16.60;99.90;;;;;;5013677;28;20227;-63
2021/07/01 03:29:14;;;;;;;1.23;0.93;;;16.70;99.90;;;;;;5013854;28;20210;-64
2021/07/01 03:31:41;;;;;;;1.40;1.00;;;16.70;99.90;;;;;;5013594;28;20269;-63
2021/07/01 03:34:07;;;;;;;1.00;0.70;;;16.70;99.90;;;;;;5013431;28;20261;-63
2021/07/01 03:36:34;;;;;;;1.43;1.10;;;16.70;99.90;;;;;;5013685;28;20253;-62
2021/07/01 03:39:03;;;;;;;2.40;1.10;;;16.60;99.90;;;;;;5013407;28;20214;-63
2021/07/01 03:41:30;;;;;;;3.00;1.10;;;16.60;99.90;;;;;;5013275;28;20203;-63
2021/07/01 03:43:57;;;;;;;2.77;1.20;;;16.70;99.90;;;;;;5013500;28;20214;-63
2021/07/01 03:46:23;;;;;;;1.20;1.00;;;16.60;99.90;;;;;;5013258;28;20227;-62
2021/07/01 03:48:50;;;;;;;4.03;1.90;;;16.60;99.90;;;;;;5013081;28;20224;-61
2021/07/01 03:51:17;;;;;;;2.23;1.30;;;16.60;99.90;;;;;;5013437;28;20207;-62
2021/07/01 03:53:43;;;;;;;1.93;0.87;;;16.70;99.90;;;;;;5012993;28;20211;-62
2021/07/01 03:56:13;;;;;;;1.83;0.90;;;16.70;99.90;;;;;;5013132;28;20235;-62
2021/07/01 03:58:40;;;;;;;1.20;1.10;;;16.70;99.90;;;;;;5013224;28;20211;-62
2021/07/01 04:01:07;;;;;;;3.83;1.20;;;16.60;99.90;;;;;;5013146;28;20585;-62
2021/07/01 04:03:33;;;;;;;2.13;1.20;;;16.60;99.90;;;;;;5013121;28;20207;-63
2021/07/01 04:06:00;;;;;;;1.03;0.93;;;16.60;99.90;;;;;;5012781;28;20250;-63
2021/07/01 04:08:27;;;;;;;1.53;0.87;;;16.60;99.90;;;;;;5012774;28;20230;-63
2021/07/01 04:10:53;;;;;;;1.40;1.00;;;16.60;99.90;;;;;;5012715;28;20211;-63
2021/07/01 04:13:21;;;;;;;1.10;0.90;;;16.60;99.90;;;;;;5013219;28;20243;-62
2021/07/01 04:15:48;;;;;;;0.90;0.60;;;16.60;99.90;;;;;;5013031;28;20658;-63
2021/07/01 04:18:16;;;;;;;3.77;1.20;;;16.60;99.90;;;;;;5012575;28;20203;-63
2021/07/01 04:20:43;;;;;;;0.90;0.90;;;16.60;99.90;;;;;;5012873;28;20210;-63
2021/07/01 04:23:10;;;;;;;0.77;0.77;;;16.60;99.90;;;;;;5012856;28;20217;-63
2021/07/01 04:25:37;;;;;;;2.30;0.90;;;16.70;99.90;;;;;;5012799;28;20223;-63
2021/07/01 04:28:04;;;;;;;0.80;0.80;;;16.70;99.90;;;;;;5012785;28;20226;-63
2021/07/01 04:30:32;;;;;;;2.13;1.10;;;16.70;99.90;;;;;;5012957;28;20261;-63
2021/07/01 04:32:59;;;;;;;1.77;1.07;;;16.70;99.90;;;;;;5012750;28;20215;-63
2021/07/01 04:35:26;;;;;;;3.60;1.60;;;16.80;99.90;;;;;;5012472;28;20625;-63
2021/07/01 04:37:52;;;;;;;2.03;1.50;;;16.80;99.90;;;;;;5012669;28;20223;-62
2021/07/01 04:40:19;;;;;;;1.47;1.00;;;16.80;99.90;;;;;;5012686;28;20284;-62
2021/07/01 04:42:46;;;;;;;2.10;1.00;;;16.90;99.90;;;;;;5012602;28;20218;-63
2021/07/01 04:45:13;;;;;;;2.37;2.13;;;16.90;99.90;;;;;;5012468;28;20671;-62
2021/07/01 04:47:41;;;;;;;2.57;1.10;;;16.80;99.90;;;;;;5012341;28;20234;-64
2021/07/01 04:50:09;;;;;;;2.30;1.50;;;16.90;99.90;;;;;;5012348;28;20203;-63
2021/07/01 04:52:36;;;;;;;0.97;0.93;;;16.80;99.90;;;;;;5012535;28;20910;-63
2021/07/01 04:55:03;;;;;;;1.17;1.07;;;16.80;99.90;;;;;;5011919;28;20203;-63
2021/07/01 04:57:30;;;;;;;1.80;0.97;;;16.80;99.90;;;;;;5012001;28;20734;-63
2021/07/01 04:59:57;;;;;;;2.17;1.30;;;16.70;99.90;;;;;;5012069;28;20206;-62
2021/07/01 05:02:23;;;;;;;1.13;0.90;;;16.80;99.90;;;;;;5011824;28;20214;-63
2021/07/01 05:04:51;;;;;;;1.70;1.40;;;16.80;99.90;;;;;;5011595;28;20207;-63
2021/07/01 05:07:18;;;;;;;1.73;1.20;;;16.80;99.90;;;;;;5011749;28;20238;-63
2021/07/01 05:09:45;;;;;;;0.93;0.83;;;16.80;99.90;;;;;;5012127;28;20203;-64
2021/07/01 05:12:11;;;;;;;2.70;1.03;;;16.90;99.90;;;;;;5011883;28;20211;-63
2021/07/01 05:14:38;;;;;;;1.57;1.17;;;16.90;99.90;;;;;;5011533;28;20610;-62
2021/07/01 05:17:05;;;;;;;1.63;1.00;;;17.00;99.90;;;;;;5011771;28;20230;-63
2021/07/01 05:19:32;;;;;;;2.20;1.60;;;17.10;99.90;;;;;;5011863;28;20207;-62
2021/07/01 05:22:00;;;;;;;4.13;1.97;;;17.30;99.90;;;;;;5012244;28;20203;-63
2021/07/01 05:24:26;;;;;;;6.00;3.73;;;17.40;99.90;;;;;;5011893;28;20243;-63
2021/07/01 05:26:53;;;;;;;5.77;1.60;;;17.50;99.90;;;;;;5011708;28;20260;-63
2021/07/01 05:29:20;;;;;;;3.10;1.20;;;17.50;99.90;;;;;;5011027;28;20238;-63
2021/07/01 05:31:46;;;;;;;4.40;1.17;;;17.50;99.90;;;;;;5011619;28;20218;-63
2021/07/01 05:34:13;;;;;;;4.63;1.10;;;17.50;99.90;;;;;;5011709;28;20234;-64
2021/07/01 05:36:40;;;;;;;10.07;1.60;;;17.50;99.90;;;;;;5011838;28;20258;-63
2021/07/01 05:39:08;;;;;;;13.90;6.43;;;17.50;99.90;;;;;;5011479;28;20226;-63
2021/07/01 05:41:34;;;;;;;6.23;1.20;;;17.50;99.90;;;;;;5011389;28;20207;-63
2021/07/01 05:44:03;;;;;;;5.90;0.90;;;17.50;99.90;;;;;;5011301;28;20214;-63
2021/07/01 05:46:30;;;;;;;3.37;1.20;;;17.60;99.90;;;;;;5011203;28;20242;-64
2021/07/01 05:48:57;;;;;;;7.33;1.47;;;17.50;99.90;;;;;;5011195;28;20304;-63
2021/07/01 05:51:25;;;;;;;5.53;1.73;;;17.50;99.90;;;;;;5011499;28;20207;-64
2021/07/01 05:53:58;;;;;;;6.23;1.27;;;17.50;99.90;;;;;;5011200;28;20225;-63
2021/07/01 05:56:27;;;;;;;1.77;0.90;;;17.50;99.90;;;;;;5011920;28;20262;-63
2021/07/01 05:58:53;;;;;;;3.25;1.05;;;17.50;99.90;;;;;;5011154;28;20202;-64
2021/07/01 06:01:20;;;;;;;1.43;1.10;;;17.50;99.90;;;;;;5011335;28;20209;-63
2021/07/01 06:03:47;;;;;;;3.43;0.93;;;17.60;99.90;;;;;;5011046;28;20214;-63
2021/07/01 06:06:14;;;;;;;1.07;0.80;;;17.60;99.90;;;;;;5011269;28;20285;-63
2021/07/01 06:08:41;;;;;;;6.88;4.20;;;17.60;99.90;;;;;;5010960;28;20737;-63
2021/07/01 06:11:09;;;;;;;3.80;2.47;;;17.70;99.90;;;;;;5011159;28;20228;-63
2021/07/01 06:13:42;;;;;;;2.90;1.17;;;17.70;99.90;;;;;;5010956;28;20215;-63
2021/07/01 06:16:12;;;;;;;3.13;1.10;;;17.80;99.90;;;;;;5011317;28;20227;-63
2021/07/01 06:18:40;;;;;;;1.20;0.90;;;17.80;99.90;;;;;;5010656;28;20207;-63
2021/07/01 06:21:07;;;;;;;0.98;0.88;;;17.80;99.90;;;;;;5011001;28;20243;-63
2021/07/01 06:23:37;;;;;;;1.10;0.98;;;18.00;99.90;;;;;;5010839;28;20211;-63
2021/07/01 06:26:04;;;;;;;2.37;1.27;;;18.00;99.90;;;;;;5010852;28;20234;-63
2021/07/01 06:28:33;;;;;;;1.63;1.02;;;18.00;99.90;;;;;;5011290;28;20227;-63
2021/07/01 06:31:01;;;;;;;2.00;1.07;;;18.00;99.90;;;;;;5010678;28;20207;-63
2021/07/01 06:33:28;;;;;;;1.33;1.15;;;18.00;99.90;;;;;;5010739;28;20219;-63
2021/07/01 06:35:55;;;;;;;2.65;1.02;;;17.90;99.90;;;;;;5011177;28;20207;-63
2021/07/01 06:38:24;;;;;;;3.20;1.20;;;17.90;99.90;;;;;;5010342;28;20647;-63
2021/07/01 06:40:52;;;;;;;7.28;2.15;;;17.80;99.90;;;;;;5013986;28;20211;-63
2021/07/01 06:43:21;;;;;;;3.90;2.08;;;17.80;99.90;;;;;;5014595;28;20207;-63
2021/07/01 06:45:49;;;;;;;3.78;1.35;;;17.70;99.90;;;;;;5014570;28;20644;-63
2021/07/01 06:48:17;;;;;;;5.05;3.15;;;17.70;99.90;;;;;;5014264;28;20250;-63
2021/07/01 06:50:45;;;;;;;2.75;1.40;;;17.70;99.90;;;;;;5014363;28;20257;-63
2021/07/01 06:53:14;;;;;;;13.40;7.18;;;17.60;99.90;;;;;;5014056;28;20214;-63
2021/07/01 06:55:43;;;;;;;2.42;1.55;;;17.60;99.90;;;;;;5014350;28;20202;-63
2021/07/01 06:58:10;;;;;;;7.50;1.52;;;17.60;99.90;;;;;;5014571;28;20214;-63
2021/07/01 07:00:37;;;;;;;1.55;0.98;;;17.60;99.90;;;;;;5014458;28;20238;-63
2021/07/01 07:03:04;;;;;;;4.40;1.17;;;17.60;99.90;;;;;;5014410;28;20211;-63
2021/07/01 07:05:32;;;;;;;2.65;1.00;;;17.60;99.90;;;;;;5014581;28;20234;-63
2021/07/01 07:07:59;;;;;;;2.63;1.20;;;17.70;99.90;;;;;;5013626;28;20241;-63
2021/07/01 07:10:26;;;;;;;2.28;1.15;;;17.70;99.90;;;;;;5014353;28;20214;-63
2021/07/01 07:12:54;;;;;;;2.53;1.15;;;17.70;99.90;;;;;;5014420;28;20214;-64
2021/07/01 07:15:27;;;;;;;2.40;1.35;;;17.70;99.90;;;;;;5013510;28;20559;-64
2021/07/01 07:17:54;;;;;;;3.03;1.10;;;17.80;99.90;;;;;;5013527;28;20296;-63
2021/07/01 07:20:23;;;;;;;1.95;1.10;;;17.90;99.90;;;;;;5013864;28;20210;-63
2021/07/01 07:22:54;;;;;;;4.95;1.50;;;17.90;99.90;;;;;;5013681;28;20207;-63
2021/07/01 07:25:21;;;;;;;1.67;1.15;;;18.10;99.90;;;;;;5013713;28;20211;-63
2021/07/01 07:27:55;;;;;;;2.45;1.30;;;18.20;99.90;;;;;;5013528;28;20230;-63
2021/07/01 07:30:26;;;;;;;2.08;1.65;;;18.30;99.90;;;;;;5013505;28;20750;-63
2021/07/01 07:32:55;;;;;;;8.85;2.30;;;18.40;99.90;;;;;;5013627;28;20638;-63
2021/07/01 07:35:23;;;;;;;2.03;1.15;;;18.60;99.90;;;;;;5013399;28;20207;-63
2021/07/01 07:37:51;;;;;;;2.63;1.42;;;18.70;99.90;;;;;;5013281;28;20230;-63
2021/07/01 07:40:18;;;;;;;1.65;1.40;;;18.70;99.90;;;;;;5015778;28;20268;-62
2021/07/01 07:42:45;;;;;;;4.93;1.50;;;18.70;99.90;;;;;;5016252;28;20207;-63
2021/07/01 07:45:13;;;;;;;1.88;1.20;;;18.70;99.90;;;;;;5015412;28;20472;-62
2021/07/01 07:47:40;;;;;;;1.75;1.30;;;18.60;99.90;;;;;;5016324;28;20753;-63
2021/07/01 07:50:09;;;;;;;3.53;1.17;;;18.70;99.90;;;;;;5015529;28;20235;-62
2021/07/01 07:52:39;;;;;;;1.02;0.90;;;18.80;99.90;;;;;;5015380;28;20207;-63
2021/07/01 07:55:09;;;;;;;1.55;1.00;;;19.00;99.90;;;;;;5016028;28;20207;-63
2021/07/01 07:57:36;;;;;;;3.17;1.23;;;19.20;99.90;;;;;;5015874;28;20310;-63
2021/07/01 08:00:04;;;;;;;1.83;1.05;;;19.30;99.90;;;;;;5015792;28;20571;-63
2021/07/01 08:02:46;;;;;;;2.33;1.20;;;19.40;99.90;;;;;;5015990;28;20592;-61
2021/07/01 08:05:14;;;;;;;1.40;1.10;;;19.40;99.90;;;;;;5015493;28;20568;-61
2021/07/01 08:07:41;;;;;;;2.65;1.63;;;19.60;99.90;;;;;;5014277;28;20743;-63
2021/07/01 08:10:13;;;;;;;4.38;1.70;;;19.90;99.90;;;;;;5013159;28;20238;-61
2021/07/01 08:12:42;;;;;;;3.03;1.40;;;20.10;99.90;;;;;;5013803;28;20257;-61
2021/07/01 08:15:12;;;;;;;1.98;1.48;;;20.20;99.90;;;;;;5013481;28;20265;-61
2021/07/01 08:17:42;;;;;;;3.10;1.60;;;20.20;99.90;;;;;;5013579;28;20223;-60
2021/07/01 08:20:10;;;;;;;2.85;1.15;;;20.20;99.90;;;;;;5013289;28;20262;-61
2021/07/01 08:22:38;;;;;;;1.95;1.42;;;20.20;99.90;;;;;;5013418;28;20211;-61
2021/07/01 08:25:05;;;;;;;2.40;2.08;;;20.20;99.90;;;;;;5013488;28;20211;-61
2021/07/01 08:27:34;;;;;;;2.85;1.67;;;20.30;99.90;;;;;;5013571;28;20605;-58
2021/07/01 08:30:01;;;;;;;2.22;2.00;;;20.30;99.90;;;;;;5012620;28;20226;-60
2021/07/01 08:32:31;;;;;;;3.22;2.15;;;20.20;99.90;;;;;;5012959;28;20211;-62
2021/07/01 08:34:58;;;;;;;2.10;1.90;;;20.20;99.90;;;;;;5012327;28;20268;-60
2021/07/01 08:37:25;;;;;;;3.30;3.00;;;20.20;99.90;;;;;;5012458;28;20238;-60
2021/07/01 08:39:54;;;;;;;3.95;2.33;;;20.10;99.90;;;;;;5012844;28;20202;-60
2021/07/01 08:42:25;;;;;;;4.20;2.58;;;20.20;99.90;;;;;;5012743;28;20264;-60
2021/07/01 08:44:58;;;;;;;4.80;2.42;;;20.30;99.90;;;;;;5012667;28;20315;-60
2021/07/01 08:47:30;;;;;;;4.90;3.50;;;20.40;99.90;;;;;;5012478;28;20288;-60
2021/07/01 08:50:00;;;;;;;3.63;2.42;;;20.50;99.90;;;;;;5012578;28;20231;-62
2021/07/01 08:52:28;;;;;;;4.07;2.45;;;20.70;99.90;;;;;;5012520;28;20206;-60
2021/07/01 08:55:00;;;;;;;3.33;2.55;;;20.90;99.90;;;;;;5012401;28;20211;-61
2021/07/01 08:57:30;;;;;;;2.80;1.95;;;20.90;99.90;;;;;;5012499;28;20227;-61
2021/07/01 09:00:05;;;;;;;3.35;2.50;;;20.80;99.90;;;;;;5012303;28;20210;-61
2021/07/01 09:02:35;;;;;;;2.85;2.08;;;20.70;99.90;;;;;;5012107;28;20206;-60
2021/07/01 09:05:07;;;;;;;3.45;2.03;;;20.70;99.90;;;;;;5011668;28;20269;-60
2021/07/01 09:07:36;;;;;;;2.95;1.80;;;20.70;99.90;;;;;;5012116;28;20715;-61
2021/07/01 09:10:07;;;;;;;2.05;1.85;;;20.90;99.90;;;;;;5012035;28;20250;-60
2021/07/01 09:12:35;;;;;;;3.20;1.95;;;20.90;99.90;;;;;;5012143;28;20608;-60
2021/07/01 09:15:08;;;;;;;2.50;2.00;;;21.10;99.90;;;;;;5012042;28;20700;-61
2021/07/01 09:17:36;;;;;;;1.73;1.60;;;21.40;99.90;;;;;;5011917;28;20222;-61
2021/07/01 09:20:06;;;;;;;2.10;1.90;;;21.60;99.90;;;;;;5011748;28;20581;-64
2021/07/01 09:22:33;;;;;;;2.53;1.85;;;21.90;99.90;;;;;;5011965;28;20652;-60
2021/07/01 09:25:00;;;;;;;2.97;2.45;;;22.10;99.90;;;;;;5011299;28;20257;-61
2021/07/01 09:27:29;;;;;;;2.60;1.88;;;22.30;99.90;;;;;;5011558;28;20234;-62
2021/07/01 09:29:57;;;;;;;2.60;1.65;;;22.50;99.90;;;;;;5011714;28;20223;-64
2021/07/01 09:32:28;;;;;;;2.97;1.58;;;22.70;99.90;;;;;;5011340;28;20213;-60
2021/07/01 09:34:56;;;;;;;2.20;1.77;;;22.70;99.90;;;;;;5011394;28;20248;-59
2021/07/01 09:37:23;;;;;;;4.80;1.90;;;22.70;99.90;;;;;;5011334;28;20230;-61
2021/07/01 09:39:50;;;;;;;4.25;2.45;;;22.80;99.90;;;;;;5011125;28;20286;-60
2021/07/01 09:42:17;;;;;;;5.63;2.35;;;22.90;99.90;;;;;;5011688;28;20206;-59
2021/07/01 09:44:44;;;;;;;3.58;2.40;;;22.90;99.90;;;;;;5011378;28;20211;-59
2021/07/01 09:47:12;;;;;;;7.30;2.50;;;22.80;99.90;;;;;;5011000;28;20666;-61
2021/07/01 09:49:41;;;;;;;2.60;1.88;;;22.60;99.90;;;;;;5011141;28;20322;-59
2021/07/01 09:52:10;;;;;;;3.80;2.10;;;22.40;99.90;;;;;;5011123;28;20211;-59
2021/07/01 09:54:38;;;;;;;3.70;2.00;;;22.00;99.90;;;;;;5011125;28;20575;-60
2021/07/01 09:57:09;;;;;;;5.10;2.00;;;21.70;99.90;;;;;;5011636;28;20231;-59
2021/07/01 09:59:44;;;;;;;2.70;2.15;;;21.40;99.90;;;;;;5011367;28;20214;-59
2021/07/01 10:02:15;;;;;;;2.90;1.80;;;21.20;99.90;;;;;;5011147;28;20618;-60
2021/07/01 10:04:47;;;;;;;2.00;1.80;;;21.10;99.90;;;;;;5010675;28;20215;-60
2021/07/01 10:07:16;;;;;;;3.90;2.05;;;21.00;99.90;;;;;;5010891;28;20241;-59
2021/07/01 10:09:43;;;;;;;2.35;1.60;;;20.80;99.90;;;;;;5010893;28;20226;-59
2021/07/01 10:12:18;;;;;;;1.95;1.60;;;20.60;99.90;;;;;;5010749;28;20206;-59
2021/07/01 10:14:45;;;;;;;2.20;1.85;;;20.50;99.90;;;;;;5011903;28;20211;-59
2021/07/01 10:17:13;;;;;;;3.38;2.15;;;20.50;99.90;;;;;;5014854;28;20234;-60
2021/07/01 10:19:42;;;;;;;3.47;1.90;;;20.40;99.90;;;;;;5015181;28;20205;-60
2021/07/01 10:22:11;;;;;;;5.30;1.77;;;20.30;99.90;;;;;;5015146;28;20218;-60
2021/07/01 10:24:52;;;;;;;3.88;2.17;;;20.20;99.90;;;;;;5014730;28;20203;-60
2021/07/01 10:27:31;;;;;;;2.10;1.90;;;20.10;99.90;;;;;;5014518;28;20233;-60
2021/07/01 10:30:00;;;;;;;4.75;2.40;;;19.80;99.90;;;;;;5014716;28;20284;-60
2021/07/01 10:32:38;;;;;;;4.35;2.30;;;19.80;99.90;;;;;;5014449;28;20214;-60
2021/07/01 10:35:19;;;;;;;4.93;2.50;;;19.20;99.90;;;;;;5014369;28;20276;-60
2021/07/01 10:37:58;;;;;;;2.90;2.50;;;19.50;99.90;;;;;;5014546;28;20233;-60
2021/07/01 10:40:25;;;;;;;5.05;2.03;;;19.40;99.90;;;;;;5014854;28;20648;-60
2021/07/01 10:42:55;;;;;;;2.25;1.90;;;19.30;99.90;;;;;;5014644;28;20210;-60
2021/07/01 10:45:22;;;;;;;3.53;1.63;;;19.10;99.90;;;;;;5014440;28;20203;-61
2021/07/01 10:47:48;;;;;;;2.97;1.77;;;19.00;99.90;;;;;;5014376;28;20362;-61
2021/07/01 10:50:30;;;;;;;3.45;1.98;;;19.00;99.90;;;;;;5014295;28;20227;-61
2021/07/01 10:52:58;;;;;;;1.95;1.65;;;19.00;99.90;;;;;;5014806;28;20269;-61
2021/07/01 10:55:25;;;;;;;1.80;1.70;;;19.10;99.90;;;;;;5014317;28;20207;-61
2021/07/01 10:57:57;;;;;;;1.77;1.67;;;19.30;99.90;;;;;;5014107;28;20223;-61
2021/07/01 11:00:40;;;;;;;5.18;3.08;;;19.20;99.90;;;;;;5014199;28;20210;-60
2021/07/01 11:03:12;;;;;;;2.03;1.83;;;19.10;99.90;;;;;;5013670;28;20211;-60
2021/07/01 11:05:39;;;;;;;2.72;2.08;;;19.00;99.90;;;;;;5014123;28;20648;-60
2021/07/01 11:08:08;;;;;;;2.40;1.95;;;19.00;99.90;;;;;;5014002;28;20217;-60
2021/07/01 11:10:38;;;;;;;4.82;3.90;;;18.90;99.90;;;;;;5014099;28;20227;-60
2021/07/01 11:13:09;;;;;;;9.85;3.38;;;19.00;99.90;;;;;;5014258;28;20207;-60
2021/07/01 11:15:56;;;;;;;2.58;2.38;;;19.10;99.90;;;;;;5013529;28;20199;-60
2021/07/01 11:18:35;;;;;;;3.10;2.33;;;19.20;99.90;;;;;;5013496;28;20214;-60
2021/07/01 11:21:14;;;;;;;4.78;2.70;;;19.50;99.90;;;;;;5013736;28;20578;-60
2021/07/01 11:23:43;;;;;;;3.88;2.22;;;19.70;99.90;;;;;;5013499;28;20207;-60
2021/07/01 11:26:27;;;;;;;4.97;3.53;;;20.00;99.90;;;;;;5012586;28;20297;-60
2021/07/01 11:28:55;;;;;;;3.50;2.72;;;20.40;99.90;;;;;;5013342;28;20269;-61
2021/07/01 11:31:34;;;;;;;3.05;2.72;;;20.80;99.90;;;;;;4996277;28;20452;-64
2021/07/01 11:34:03;;;;;;;2.47;2.28;;;21.30;99.90;;;;;;4993121;28;20207;-62
2021/07/01 11:36:30;;;;;;;2.83;1.98;;;21.90;99.90;;;;;;4993261;28;20234;-65
2021/07/01 11:39:12;;;;;;;4.45;2.63;;;22.40;99.90;;;;;;4993586;28;20214;-61
2021/07/01 11:41:40;;;;;;;2.70;2.13;;;22.70;99.90;;;;;;4993352;28;20699;-63
2021/07/01 11:44:08;;;;;;;2.85;2.15;;;22.80;99.90;;;;;;4993431;28;20204;-66
2021/07/01 11:46:35;;;;;;;2.65;2.30;;;22.80;99.90;;;;;;4993388;28;20238;-64
2021/07/01 11:49:06;;;;;;;11.55;10.07;;;22.90;99.90;;;;;;4993261;28;20637;-65
2021/07/01 11:51:33;;;;;;;5.40;4.40;;;23.00;99.90;;;;;;4994027;28;20270;-65
2021/07/01 11:54:00;;;;;;;2.30;2.10;;;23.20;99.90;;;;;;4994111;28;20219;-64
2021/07/01 11:56:27;;;;;;;3.78;2.47;;;23.40;99.90;;;;;;4994098;28;20227;-63
2021/07/01 11:58:54;;;;;;;2.30;2.03;;;23.40;99.90;;;;;;4993946;28;20208;-63
2021/07/01 12:01:21;;;;;;;4.68;2.90;;;23.50;99.90;;;;;;4993105;28;20208;-63
2021/07/01 12:03:50;;;;;;;6.00;2.90;;;23.40;99.90;;;;;;4993482;28;20278;-65
2021/07/01 12:06:44;;;;;;;2.47;2.28;;;23.40;99.90;;;;;;4998223;28;20630;-63
2021/07/01 12:09:12;;;;;;;4.45;2.90;;;23.60;99.90;;;;;;5012666;28;20230;-64
2021/07/01 12:12:15;;;;;;;3.45;2.53;;;23.70;99.90;;;;;;5012386;28;20241;-60
2021/07/01 12:14:43;;;;;;;2.88;2.33;;;23.90;99.90;;;;;;5007540;28;20206;-60
2021/07/01 12:17:10;;;;;;;16.27;14.48;;;23.90;99.90;;;;;;5012869;28;20234;-60
2021/07/01 12:20:03;;;;;;;5.20;2.53;;;24.00;99.90;;;;;;5012975;28;20210;-60
2021/07/01 12:22:45;;;;;;;2.72;2.22;;;24.20;99.90;;;;;;5005940;28;20238;-61
2021/07/01 12:25:13;;;;;;;2.75;2.10;;;24.20;99.90;;;;;;5012131;28;20202;-62
2021/07/01 12:27:40;;;;;;;5.97;2.60;;;24.20;99.90;;;;;;5012363;28;20230;-62
2021/07/01 12:30:07;;;;;;;2.35;2.15;;;24.10;99.90;;;;;;5011630;28;20230;-63
2021/07/01 12:32:34;;;;;;;3.95;2.15;;;23.90;99.90;;;;;;5011931;28;20237;-63
2021/07/01 12:35:39;;;;;;;2.28;2.08;;;23.90;99.90;;;;;;5012414;28;20207;-63
2021/07/01 12:38:13;;;;;;;3.78;2.22;;;23.90;99.90;;;;;;5011882;28;20206;-62
2021/07/01 12:40:55;;;;;;;2.38;2.00;;;24.10;99.90;;;;;;5011957;28;20553;-62
2021/07/01 12:43:55;;;;;;;5.25;2.60;;;24.30;99.90;;;;;;5012229;28;20215;-62
2021/07/01 12:46:55;;;;;;;3.67;3.35;;;24.40;99.90;;;;;;5011943;28;20467;-61
2021/07/01 12:49:48;;;;;;;2.90;2.17;;;24.30;99.90;;;;;;5011562;28;20576;-62
2021/07/01 12:52:18;;;;;;;2.35;1.95;;;24.20;99.90;;;;;;5011845;28;20238;-67
2021/07/01 12:54:59;;;;;;;2.15;1.95;;;24.20;99.90;;;;;;5011494;28;20207;-63